Time;durP1;ratioP1;P1;durP2;ratioP2;P2;SDS_P1;SDS_P2;PMS_P1;PMS_P2;Temp;Humidity;BMP_temperature;BMP_pressure;BME280_temperature;BME280_humidity;BME280_pressure;Samples;Min_cycle;Max_cycle;Signal;HPM_P1;HPM_P2
2023/08/04 00:00:35;;;;;;;7.40;5.10;;;;;;;27.00;nan;62600.38;5011824;28;20203;-62
2023/08/04 00:03:01;;;;;;;7.65;5.35;;;;;;;27.13;nan;62669.78;5011417;28;20175;-59
2023/08/04 00:05:26;;;;;;;8.02;5.15;;;;;;;27.10;nan;62508.91;5011341;28;20180;-60
2023/08/04 00:07:52;;;;;;;7.43;5.35;;;;;;;27.11;nan;62547.34;5011559;28;20611;-61
2023/08/04 00:10:18;;;;;;;6.60;4.93;;;;;;;26.90;nan;62544.31;5011179;28;20172;-60
2023/08/04 00:12:43;;;;;;;6.72;5.05;;;;;;;27.08;nan;62606.31;5014681;28;20296;-62
2023/08/04 00:15:09;;;;;;;7.18;4.95;;;;;;;26.98;nan;62510.94;5015301;28;20292;-60
2023/08/04 00:17:37;;;;;;;8.35;5.10;;;;;;;26.80;nan;62622.03;5014450;28;20557;-63
2023/08/04 00:20:04;;;;;;;10.18;5.53;;;;;;;26.74;nan;62450.50;5014658;28;20335;-60
2023/08/04 00:22:29;;;;;;;8.55;6.05;;;;;;;26.93;nan;62639.56;5014672;28;20172;-62
2023/08/04 00:24:55;;;;;;;7.53;5.10;;;;;;;26.85;nan;62538.59;5014207;28;20176;-61
2023/08/04 00:27:20;;;;;;;7.97;4.95;;;;;;;26.53;nan;62392.44;5014902;28;20223;-61
2023/08/04 00:29:46;;;;;;;7.78;5.32;;;;;;;26.77;nan;62482.22;5014858;28;20182;-61
2023/08/04 00:32:11;;;;;;;7.57;5.15;;;;;;;26.59;nan;62464.28;5014516;28;20200;-61
2023/08/04 00:34:36;;;;;;;9.88;5.13;;;;;;;26.76;nan;62546.66;5014762;28;20168;-61
2023/08/04 00:37:02;;;;;;;8.15;5.20;;;;;;;26.57;nan;62480.34;5014671;28;20180;-59
2023/08/04 00:39:27;;;;;;;7.45;4.95;;;;;;;26.58;nan;62592.19;5014358;28;20210;-60
2023/08/04 00:41:53;;;;;;;7.97;5.07;;;;;;;26.72;nan;62539.44;5013263;28;20190;-61
2023/08/04 00:44:18;;;;;;;6.88;4.97;;;;;;;26.45;nan;62403.72;5014463;28;20606;-61
2023/08/04 00:46:44;;;;;;;7.35;4.80;;;;;;;26.55;nan;62593.41;5014704;28;20183;-59
2023/08/04 00:49:10;;;;;;;7.75;5.15;;;;;;;26.58;nan;62529.25;5014492;28;20176;-62
2023/08/04 00:51:37;;;;;;;7.18;5.25;;;;;;;26.60;nan;62416.16;5014364;28;20287;-62
2023/08/04 00:54:04;;;;;;;7.80;5.25;;;;;;;26.57;nan;62446.25;5014091;28;20203;-60
2023/08/04 00:56:30;;;;;;;10.20;5.43;;;;;;;26.47;nan;62453.19;5014264;28;20210;-61
2023/08/04 00:58:57;;;;;;;7.95;5.20;;;;;;;26.64;nan;62452.19;5012314;28;20643;-60
2023/08/04 01:01:23;;;;;;;7.65;4.88;;;;;;;26.61;nan;62616.59;5012628;28;20238;-60
2023/08/04 01:03:49;;;;;;;7.30;5.20;;;;;;;26.35;nan;62417.03;5013951;28;20157;-59
2023/08/04 01:06:40;;;;;;;8.68;5.63;;;;;;;26.52;nan;62464.13;5014047;28;20196;-60
2023/08/04 01:09:17;;;;;;;8.38;5.32;;;;;;;26.58;nan;62507.72;5013586;28;20537;-60
2023/08/04 01:11:51;;;;;;;7.38;5.13;;;;;;;26.51;nan;62478.72;5013289;28;20203;-60
2023/08/04 01:14:18;;;;;;;7.90;5.20;;;;;;;26.23;nan;62332.00;5012618;28;20172;-61
2023/08/04 01:16:44;;;;;;;7.55;5.13;;;;;;;26.26;nan;62419.84;5012734;28;20238;-60
2023/08/04 01:19:09;;;;;;;8.55;5.40;;;;;;;26.37;nan;62416.09;5012566;28;20176;-62
2023/08/04 01:21:42;;;;;;;8.27;5.18;;;;;;;26.45;nan;62676.34;5013062;28;20160;-62
2023/08/04 01:24:08;;;;;;;7.50;5.38;;;;;;;26.20;nan;62370.47;5011835;28;20239;-62
2023/08/04 01:26:37;;;;;;;8.15;5.25;;;;;;;26.14;nan;62387.78;5012595;28;20686;-61
2023/08/04 01:29:04;;;;;;;7.82;5.22;;;;;;;26.31;nan;62438.66;5012848;28;20180;-62
2023/08/04 01:31:30;;;;;;;6.38;4.90;;;;;;;26.30;nan;62466.34;5013392;28;20199;-61
2023/08/04 01:33:55;;;;;;;11.10;5.38;;;;;;;26.30;nan;62466.34;5013278;28;20164;-60
2023/08/04 01:36:21;;;;;;;7.82;5.50;;;;;;;26.23;nan;62424.28;5013746;28;20179;-61
2023/08/04 01:38:46;;;;;;;7.93;5.03;;;;;;;26.06;nan;62491.28;5013681;28;20191;-60
2023/08/04 01:41:12;;;;;;;7.30;4.97;;;;;;;25.95;nan;62316.31;5013279;28;20214;-60
2023/08/04 01:43:37;;;;;;;7.65;5.32;;;;;;;26.14;nan;62390.41;5013232;28;20176;-62
2023/08/04 01:46:03;;;;;;;8.82;5.55;;;;;;;26.17;nan;62448.84;5013183;28;20487;-62
2023/08/04 01:48:28;;;;;;;6.95;5.13;;;;;;;26.16;nan;62470.72;5012807;28;20623;-62
2023/08/04 01:50:53;;;;;;;8.07;5.20;;;;;;;25.95;nan;62384.97;5013182;28;20287;-60
2023/08/04 01:53:19;;;;;;;6.63;5.03;;;;;;;26.13;nan;62439.03;5013418;28;20172;-62
2023/08/04 01:55:47;;;;;;;7.65;5.25;;;;;;;25.97;nan;62357.91;5013315;28;20242;-60
2023/08/04 01:58:13;;;;;;;8.48;5.57;;;;;;;25.97;nan;62360.50;5012894;28;20172;-61
2023/08/04 02:00:38;;;;;;;7.20;5.15;;;;;;;26.06;nan;62643.22;5012632;28;20639;-62
2023/08/04 02:03:03;;;;;;;8.73;5.80;;;;;;;25.85;nan;62346.78;5013146;28;20657;-60
2023/08/04 02:05:29;;;;;;;8.32;5.53;;;;;;;25.98;nan;62403.56;5013167;28;20203;-62
2023/08/04 02:07:54;;;;;;;8.43;5.50;;;;;;;26.00;nan;62441.94;5013114;28;20180;-61
2023/08/04 02:10:20;;;;;;;8.95;5.90;;;;;;;25.97;nan;62449.00;5013082;28;20164;-60
2023/08/04 02:12:46;;;;;;;7.60;5.65;;;;;;;25.89;nan;62377.56;5012641;28;20207;-60
2023/08/04 02:15:11;;;;;;;7.50;5.25;;;;;;;25.80;nan;62461.56;5012681;28;20172;-62
2023/08/04 02:17:36;;;;;;;9.70;6.05;;;;;;;25.85;nan;62378.22;5012496;28;20176;-61
2023/08/04 02:20:02;;;;;;;9.70;5.40;;;;;;;25.83;nan;62334.63;5012730;28;20268;-60
2023/08/04 02:22:28;;;;;;;9.02;6.43;;;;;;;25.74;nan;62425.88;5012317;28;20176;-60
2023/08/04 02:24:53;;;;;;;7.80;5.97;;;;;;;25.71;nan;62404.16;5012640;28;20176;-60
2023/08/04 02:27:18;;;;;;;9.35;6.03;;;;;;;25.50;nan;62357.72;5012323;28;20671;-59
2023/08/04 02:29:44;;;;;;;9.52;6.00;;;;;;;25.67;nan;62300.06;5012157;28;20167;-60
2023/08/04 02:32:10;;;;;;;9.32;5.57;;;;;;;25.60;nan;62336.59;5012151;28;20867;-60
2023/08/04 02:34:36;;;;;;;9.93;5.75;;;;;;;25.40;nan;62288.16;5011928;28;20641;-61
2023/08/04 02:37:02;;;;;;;10.50;5.72;;;;;;;25.39;nan;62433.53;5012597;28;20165;-62
2023/08/04 02:39:27;;;;;;;9.15;6.25;;;;;;;25.37;nan;62308.84;5012119;28;20258;-62
2023/08/04 02:41:53;;;;;;;8.20;6.00;;;;;;;25.60;nan;62331.94;5012502;28;20176;-62
2023/08/04 02:44:18;;;;;;;7.97;5.72;;;;;;;25.33;nan;62288.59;5011958;28;20180;-60
2023/08/04 02:46:45;;;;;;;8.40;5.57;;;;;;;25.49;nan;62291.13;5011942;28;20263;-61
2023/08/04 02:49:10;;;;;;;8.75;6.07;;;;;;;25.37;nan;62285.31;5012102;28;20187;-61
2023/08/04 02:51:35;;;;;;;9.98;5.90;;;;;;;25.33;nan;62283.38;5012279;28;20199;-61
2023/08/04 02:54:01;;;;;;;8.55;5.63;;;;;;;25.23;nan;62292.88;5011938;28;20242;-61
2023/08/04 02:56:26;;;;;;;10.23;6.07;;;;;;;25.35;nan;62267.31;5011947;28;20176;-59
2023/08/04 02:58:52;;;;;;;8.30;5.97;;;;;;;25.30;nan;62274.69;5011858;28;20168;-60
2023/08/04 03:01:17;;;;;;;8.20;5.45;;;;;;;25.10;nan;62228.38;5011882;28;20589;-62
2023/08/04 03:03:43;;;;;;;8.40;6.13;;;;;;;25.25;nan;62318.69;5012356;28;20171;-61
2023/08/04 03:06:09;;;;;;;9.77;5.50;;;;;;;25.18;nan;62263.06;5012048;28;20200;-61
2023/08/04 03:08:34;;;;;;;7.88;5.55;;;;;;;25.17;nan;62291.25;5012321;28;20175;-61
2023/08/04 03:11:00;;;;;;;10.10;6.10;;;;;;;25.16;nan;62336.63;5012002;28;20204;-60
2023/08/04 03:13:26;;;;;;;10.07;6.20;;;;;;;25.13;nan;62276.25;5011765;28;20260;-62
2023/08/04 03:15:57;;;;;;;11.73;6.03;;;;;;;24.95;nan;62216.50;5011636;28;20682;-61
2023/08/04 03:18:22;;;;;;;8.20;5.47;;;;;;;24.94;nan;62149.97;5011706;28;20598;-59
2023/08/04 03:20:47;;;;;;;8.35;5.72;;;;;;;25.14;nan;62327.09;5011905;28;20202;-62
2023/08/04 03:23:13;;;;;;;11.88;6.20;;;;;;;24.80;nan;62118.31;5011653;28;20179;-60
2023/08/04 03:25:38;;;;;;;9.27;5.50;;;;;;;25.02;nan;62370.91;5011708;28;20241;-60
2023/08/04 03:28:04;;;;;;;9.60;6.03;;;;;;;25.31;nan;62256.97;5011522;28;20232;-60
2023/08/04 03:30:29;;;;;;;11.43;5.90;;;;;;;25.51;nan;62335.31;5011203;28;20667;-60
2023/08/04 03:32:55;;;;;;;8.27;6.10;;;;;;;25.59;nan;62338.06;5010952;28;20546;-61
2023/08/04 03:35:20;;;;;;;8.20;5.45;;;;;;;25.90;nan;62633.31;5011514;28;20566;-60
2023/08/04 03:37:46;;;;;;;8.60;6.07;;;;;;;26.26;nan;62493.22;5011663;28;20168;-60
2023/08/04 03:40:11;;;;;;;8.70;6.20;;;;;;;26.74;nan;62560.09;5010544;28;20180;-60
2023/08/04 03:42:38;;;;;;;8.07;5.60;;;;;;;27.19;nan;62567.00;5011340;28;20214;-60
2023/08/04 03:45:05;;;;;;;10.32;5.65;;;;;;;27.74;nan;62691.88;5011489;28;20231;-62
2023/08/04 03:47:31;;;;;;;7.88;5.60;;;;;;;28.10;nan;62780.47;5015168;28;20179;-61
2023/08/04 03:49:56;;;;;;;8.07;5.57;;;;;;;28.74;nan;62863.31;5015099;28;20180;-61
2023/08/04 03:52:22;;;;;;;9.88;5.88;;;;;;;28.76;nan;62954.50;5015250;28;20203;-60
2023/08/04 03:54:48;;;;;;;7.47;5.25;;;;;;;26.13;nan;64456.91;5015567;28;20178;-60
2023/08/04 03:57:13;;;;;;;9.40;5.90;;;;;;;29.99;nan;63065.28;5015189;28;20203;-62
2023/08/04 03:59:38;;;;;;;8.10;5.43;;;;;;;30.58;nan;63180.69;5014912;28;20713;-60
2023/08/04 04:02:04;;;;;;;8.70;5.80;;;;;;;31.21;nan;63172.91;5015139;28;20211;-60
2023/08/04 04:04:30;;;;;;;9.00;5.75;;;;;;;31.56;nan;63194.72;5015225;28;20551;-62
2023/08/04 04:06:56;;;;;;;8.43;5.68;;;;;;;32.04;nan;63264.75;5015265;28;20623;-62
2023/08/04 04:09:21;;;;;;;11.55;5.68;;;;;;;32.48;nan;63446.66;5015016;28;20160;-60
2023/08/04 04:11:47;;;;;;;7.43;5.35;;;;;;;32.70;nan;63466.78;5014875;28;20219;-60
2023/08/04 04:14:13;;;;;;;8.05;5.78;;;;;;;33.14;nan;63538.84;5013311;28;20499;-59
2023/08/04 04:16:38;;;;;;;6.68;5.05;;;;;;;33.44;nan;63588.88;5014646;28;20171;-61
2023/08/04 04:19:04;;;;;;;7.68;5.57;;;;;;;33.87;nan;63643.38;5014680;28;20187;-60
2023/08/04 04:21:29;;;;;;;8.38;5.80;;;;;;;34.13;nan;63773.75;5014138;28;20179;-60
2023/08/04 04:23:54;;;;;;;7.93;5.47;;;;;;;34.28;nan;63809.75;5014362;28;20560;-60
2023/08/04 04:26:20;;;;;;;8.80;5.38;;;;;;;34.51;nan;63804.53;5014200;28;20199;-60
2023/08/04 04:28:45;;;;;;;7.45;5.45;;;;;;;34.81;nan;63782.38;5013685;28;20626;-59
2023/08/04 04:31:10;;;;;;;10.52;5.32;;;;;;;34.50;nan;63760.88;5013993;28;20215;-60
2023/08/04 04:33:36;;;;;;;8.07;5.60;;;;;;;34.05;nan;63722.00;5012216;28;20187;-60
2023/08/04 04:36:01;;;;;;;7.60;5.55;;;;;;;33.05;nan;63618.53;5012116;28;20653;-61
2023/08/04 04:38:28;;;;;;;7.07;4.90;;;;;;;33.60;nan;63596.19;5011958;28;20188;-61
2023/08/04 04:41:01;;;;;;;8.38;5.75;;;;;;;33.74;nan;63670.78;5011976;28;20795;-62
2023/08/04 04:43:27;;;;;;;8.10;5.82;;;;;;;33.86;nan;63663.44;5011712;28;20179;-64
2023/08/04 04:45:54;;;;;;;9.48;5.68;;;;;;;33.78;nan;63638.25;5011875;28;20238;-60
2023/08/04 04:48:20;;;;;;;7.65;5.60;;;;;;;33.30;nan;63557.34;5013237;28;20195;-62
2023/08/04 04:50:46;;;;;;;8.57;5.65;;;;;;;32.26;nan;63437.72;5013949;28;20179;-63
2023/08/04 04:53:12;;;;;;;8.70;5.60;;;;;;;31.77;nan;63215.13;5014187;28;20193;-61
2023/08/04 04:55:38;;;;;;;8.73;6.00;;;;;;;31.90;nan;63343.81;5013970;28;20183;-63
2023/08/04 04:58:03;;;;;;;10.73;6.10;;;;;;;31.78;nan;63311.44;5011946;28;20398;-63
2023/08/04 05:00:28;;;;;;;8.82;5.75;;;;;;;31.88;nan;63310.34;5013272;28;20163;-64
2023/08/04 05:02:54;;;;;;;7.88;5.35;;;;;;;31.81;nan;63357.81;5013351;28;20640;-63
2023/08/04 05:05:19;;;;;;;9.45;5.68;;;;;;;32.05;nan;63336.75;5013150;28;20221;-63
2023/08/04 05:07:45;;;;;;;8.50;5.57;;;;;;;31.50;nan;63293.50;5013316;28;20615;-62
2023/08/04 05:10:10;;;;;;;7.63;5.40;;;;;;;31.46;nan;63277.75;5013190;28;20250;-62
2023/08/04 05:12:36;;;;;;;8.35;5.70;;;;;;;31.09;nan;63182.84;5013181;28;20207;-63
2023/08/04 05:15:01;;;;;;;7.95;5.53;;;;;;;30.82;nan;63099.53;5013159;28;20242;-64
2023/08/04 05:17:27;;;;;;;10.65;5.90;;;;;;;30.91;nan;63125.72;5013278;28;20216;-61
2023/08/04 05:19:52;;;;;;;10.68;6.15;;;;;;;29.95;nan;63021.72;5013200;28;20187;-63
2023/08/04 05:22:18;;;;;;;7.72;5.53;;;;;;;29.50;nan;62906.75;5013012;28;20605;-64
2023/08/04 05:24:43;;;;;;;8.50;5.32;;;;;;;28.65;nan;62768.75;5013425;28;20179;-60
2023/08/04 05:27:08;;;;;;;8.60;6.05;;;;;;;28.51;nan;62866.38;5012417;28;20673;-62
2023/08/04 05:29:34;;;;;;;8.93;5.68;;;;;;;28.71;nan;62785.63;5012940;28;20184;-64
2023/08/04 05:32:00;;;;;;;8.95;6.45;;;;;;;28.87;nan;62899.28;5012500;28;20238;-64
2023/08/04 05:34:26;;;;;;;9.35;6.20;;;;;;;28.37;nan;62833.97;5012616;28;20196;-63
2023/08/04 05:36:51;;;;;;;11.70;5.63;;;;;;;28.66;nan;62701.53;5012867;28;20557;-63
2023/08/04 05:39:17;;;;;;;9.30;6.00;;;;;;;28.68;nan;62803.75;5012570;28;20233;-64
2023/08/04 05:41:45;;;;;;;10.00;6.18;;;;;;;28.45;nan;62817.41;5012331;28;20172;-63
2023/08/04 05:44:11;;;;;;;9.75;6.28;;;;;;;28.72;nan;62786.75;5012346;28;20255;-61
2023/08/04 05:46:36;;;;;;;11.35;6.85;;;;;;;28.93;nan;62916.69;5012303;28;20623;-63
2023/08/04 05:49:01;;;;;;;8.55;6.10;;;;;;;29.26;nan;63075.19;5011171;28;20179;-65
2023/08/04 05:51:27;;;;;;;8.55;6.03;;;;;;;29.28;nan;62929.41;5012320;28;20549;-62
2023/08/04 05:53:52;;;;;;;11.10;5.97;;;;;;;29.33;nan;62925.22;5011727;28;20171;-62
2023/08/04 05:56:17;;;;;;;9.57;5.90;;;;;;;29.59;nan;62933.44;5011463;28;20172;-63
2023/08/04 05:58:43;;;;;;;11.25;6.63;;;;;;;29.55;nan;63021.06;5009317;28;20178;-63
2023/08/04 06:01:08;;;;;;;9.05;6.15;;;;;;;29.61;nan;62993.13;5009585;28;20178;-64
2023/08/04 06:03:34;;;;;;;10.70;5.68;;;;;;;29.40;nan;62851.06;5009826;28;20222;-63
2023/08/04 06:05:59;;;;;;;8.55;5.53;;;;;;;29.28;nan;62855.69;5011422;28;20159;-65
2023/08/04 06:08:24;;;;;;;10.45;6.55;;;;;;;29.18;nan;62820.53;5009102;28;20187;-64
2023/08/04 06:10:50;;;;;;;11.30;5.90;;;;;;;29.36;nan;62868.09;5012279;28;20291;-62
2023/08/04 06:13:16;;;;;;;8.52;6.15;;;;;;;29.16;nan;62834.03;5012492;28;20171;-65
2023/08/04 06:15:41;;;;;;;8.80;6.20;;;;;;;29.29;nan;62968.00;5012591;28;20160;-62
2023/08/04 06:18:06;;;;;;;12.20;6.63;;;;;;;29.39;nan;62899.94;5012261;28;20237;-64
2023/08/04 06:20:32;;;;;;;9.98;6.00;;;;;;;29.43;nan;63141.59;5012111;28;20562;-64
2023/08/04 06:22:58;;;;;;;9.80;5.65;;;;;;;29.32;nan;62923.50;5012336;28;20186;-63
2023/08/04 06:25:23;;;;;;;7.97;5.78;;;;;;;29.29;nan;62886.38;5010434;28;20171;-59
2023/08/04 06:27:49;;;;;;;10.07;6.72;;;;;;;29.39;nan;63023.75;5010465;28;20289;-59
2023/08/04 06:30:15;;;;;;;8.05;5.90;;;;;;;29.68;nan;62895.78;5011161;28;20172;-60
2023/08/04 06:32:41;;;;;;;8.13;5.70;;;;;;;29.57;nan;62968.03;5010955;28;20199;-59
2023/08/04 06:35:07;;;;;;;8.70;6.20;;;;;;;29.81;nan;63021.97;5011714;28;20182;-60
2023/08/04 06:37:32;;;;;;;8.38;5.57;;;;;;;29.90;nan;62952.13;5009585;28;20265;-59
2023/08/04 06:39:58;;;;;;;8.45;6.18;;;;;;;30.11;nan;63018.41;5009585;28;20195;-66
2023/08/04 06:42:23;;;;;;;8.57;6.00;;;;;;;29.82;nan;62988.28;5009928;28;20542;-67
2023/08/04 06:44:49;;;;;;;8.70;6.00;;;;;;;29.90;nan;62986.38;5010078;28;20175;-67
2023/08/04 06:47:14;;;;;;;7.45;5.80;;;;;;;29.75;nan;62967.06;5008742;28;20175;-59
2023/08/04 06:49:41;;;;;;;8.18;5.85;;;;;;;29.95;nan;62963.72;5009814;28;20722;-59
2023/08/04 06:52:08;;;;;;;8.65;6.25;;;;;;;29.75;nan;62911.72;5010558;28;20218;-60
2023/08/04 06:54:34;;;;;;;9.07;6.40;;;;;;;29.92;nan;62994.50;5010777;28;20221;-59
2023/08/04 06:56:59;;;;;;;8.90;6.30;;;;;;;29.85;nan;62975.91;5011157;28;20167;-60
2023/08/04 06:59:25;;;;;;;9.23;6.40;;;;;;;30.13;nan;63028.63;5011405;28;20172;-58
2023/08/04 07:01:50;;;;;;;9.35;6.13;;;;;;;30.11;nan;63090.19;5011284;28;20246;-59
2023/08/04 07:04:15;;;;;;;10.02;6.40;;;;;;;29.79;nan;62877.34;5011096;28;20175;-59
2023/08/04 07:06:41;;;;;;;8.55;5.70;;;;;;;29.67;nan;63042.19;5011152;28;20180;-60
2023/08/04 07:09:06;;;;;;;8.77;6.28;;;;;;;29.82;nan;62990.94;5010571;28;20198;-60
2023/08/04 07:11:32;;;;;;;8.73;5.93;;;;;;;29.71;nan;62926.16;5010934;28;20199;-60
2023/08/04 07:13:57;;;;;;;8.02;6.15;;;;;;;29.93;nan;63135.41;5011615;28;20545;-59
2023/08/04 07:16:22;;;;;;;7.75;5.53;;;;;;;30.22;nan;63044.25;5011340;28;20518;-59
2023/08/04 07:18:48;;;;;;;8.63;6.38;;;;;;;30.39;nan;63034.78;5011081;28;20172;-58
2023/08/04 07:21:13;;;;;;;9.07;6.05;;;;;;;30.51;nan;63069.72;5014100;28;20241;-59
2023/08/04 07:23:40;;;;;;;8.15;5.88;;;;;;;30.77;nan;63109.63;5014787;28;20627;-59
2023/08/04 07:26:07;;;;;;;10.43;6.43;;;;;;;30.85;nan;63132.00;5015145;28;20543;-57
2023/08/04 07:28:33;;;;;;;11.07;6.63;;;;;;;31.00;nan;63183.63;5014282;28;20258;-58
2023/08/04 07:31:02;;;;;;;8.65;6.18;;;;;;;31.13;nan;63187.47;5013915;28;20653;-58
2023/08/04 07:33:28;;;;;;;8.77;6.07;;;;;;;31.04;nan;63124.84;5014181;28;20665;-58
2023/08/04 07:35:55;;;;;;;8.02;5.85;;;;;;;31.11;nan;63220.09;5014688;28;20179;-58
2023/08/04 07:38:21;;;;;;;7.93;5.95;;;;;;;31.16;nan;63183.00;5014012;28;20241;-57
2023/08/04 07:40:47;;;;;;;8.27;6.05;;;;;;;31.45;nan;63208.47;5014338;28;20642;-58
2023/08/04 07:43:13;;;;;;;8.18;6.00;;;;;;;;;;5014327;28;20233;-57
2023/08/04 07:45:39;;;;;;;8.98;6.18;;;;;;;31.53;nan;63291.69;5014211;28;20217;-57
2023/08/04 07:48:04;;;;;;;10.02;5.57;;;;;;;31.35;nan;63276.22;5013863;28;20282;-57
2023/08/04 07:50:30;;;;;;;9.30;5.80;;;;;;;31.26;nan;63384.72;5014387;28;20229;-57
2023/08/04 07:52:55;;;;;;;9.30;6.40;;;;;;;31.43;nan;63203.53;5013981;28;20672;-56
2023/08/04 07:55:21;;;;;;;8.55;6.40;;;;;;;31.58;nan;63477.22;5014402;28;20708;-58
2023/08/04 07:57:47;;;;;;;9.27;6.05;;;;;;;31.94;nan;63296.13;5014807;28;20179;-58
2023/08/04 08:00:13;;;;;;;8.77;6.35;;;;;;;32.10;nan;63286.97;5014782;28;20179;-58
2023/08/04 08:02:38;;;;;;;10.18;6.13;;;;;;;32.25;nan;63378.34;5014674;28;20543;-58
2023/08/04 08:05:04;;;;;;;9.52;6.07;;;;;;;32.21;nan;63342.56;5014406;28;20176;-59
2023/08/04 08:07:29;;;;;;;10.15;6.32;;;;;;;32.34;nan;63399.91;5014484;28;20623;-57
2023/08/04 08:09:55;;;;;;;8.15;6.10;;;;;;;31.79;nan;63265.00;5013618;28;20183;-58
2023/08/04 08:12:20;;;;;;;11.52;5.82;;;;;;;31.92;nan;63285.28;5012638;28;20208;-59
2023/08/04 08:14:46;;;;;;;8.23;5.95;;;;;;;32.40;nan;63377.13;5014223;28;20175;-57
2023/08/04 08:17:11;;;;;;;10.93;6.70;;;;;;;32.50;nan;63428.38;5014379;28;20182;-59
2023/08/04 08:19:36;;;;;;;8.68;6.50;;;;;;;32.47;nan;63493.75;5014339;28;20194;-58
2023/08/04 08:22:02;;;;;;;8.95;6.00;;;;;;;32.38;nan;63462.75;5013783;28;20180;-57
2023/08/04 08:24:27;;;;;;;10.38;5.95;;;;;;;31.93;nan;63382.22;5014340;28;20167;-59
2023/08/04 08:26:53;;;;;;;9.02;6.00;;;;;;;31.74;nan;63320.63;5013678;28;20186;-57
2023/08/04 08:29:18;;;;;;;10.18;6.80;;;;;;;31.81;nan;63333.44;5013932;28;20339;-58
2023/08/04 08:31:44;;;;;;;9.13;5.90;;;;;;;31.68;nan;63282.00;5012291;28;20214;-58
2023/08/04 08:34:09;;;;;;;10.73;6.43;;;;;;;31.91;nan;63313.22;5012188;28;20221;-58
2023/08/04 08:36:35;;;;;;;8.55;5.93;;;;;;;32.31;nan;63391.16;5012645;28;20171;-58
2023/08/04 08:39:00;;;;;;;9.07;6.10;;;;;;;32.27;nan;63402.41;5012635;28;20178;-59
2023/08/04 08:41:26;;;;;;;9.88;5.95;;;;;;;32.29;nan;63391.47;5013309;28;20218;-59
2023/08/04 08:43:51;;;;;;;9.57;6.45;;;;;;;32.34;nan;63376.06;5013509;28;20167;-59
2023/08/04 08:46:16;;;;;;;8.00;6.13;;;;;;;32.52;nan;63430.69;5013597;28;20674;-59
2023/08/04 08:48:46;;;;;;;9.48;6.82;;;;;;;32.25;nan;63471.53;5014109;28;20164;-58
2023/08/04 08:51:18;;;;;;;8.68;6.00;;;;;;;32.47;nan;63403.16;5012221;28;20202;-56
2023/08/04 08:53:46;;;;;;;9.20;6.00;;;;;;;32.36;nan;63407.50;5014217;28;20179;-58
2023/08/04 08:56:12;;;;;;;8.43;6.00;;;;;;;32.51;nan;63506.31;5014132;28;20176;-58
2023/08/04 08:58:38;;;;;;;8.88;6.35;;;;;;;32.47;nan;63437.56;5013824;28;20635;-58
2023/08/04 09:01:04;;;;;;;10.05;6.97;;;;;;;32.54;nan;63438.28;4960376;28;20651;-59
2023/08/04 09:03:30;;;;;;;9.18;6.45;;;;;;;32.67;nan;63444.81;4276018;28;20970;-60
2023/08/04 09:05:55;;;;;;;8.70;6.50;;;;;;;32.34;nan;63463.41;4720842;28;20207;-58
2023/08/04 09:08:21;;;;;;;9.93;6.78;;;;;;;32.67;nan;63526.91;5013872;28;20160;-59
2023/08/04 09:10:47;;;;;;;8.73;6.18;;;;;;;32.82;nan;63512.47;5013994;28;20545;-59
2023/08/04 09:13:13;;;;;;;9.35;6.53;;;;;;;32.63;nan;63405.75;5013948;28;20160;-59
2023/08/04 09:15:46;;;;;;;10.80;7.05;;;;;;;32.84;nan;63494.16;5013800;28;20240;-57
2023/08/04 09:18:29;;;;;;;10.70;7.03;;;;;;;32.80;nan;63451.88;5013572;28;20250;-57
2023/08/04 09:21:13;;;;;;;9.13;6.72;;;;;;;32.35;nan;63416.94;5013990;28;20175;-59
2023/08/04 09:23:48;;;;;;;9.82;6.85;;;;;;;32.51;nan;63418.38;5012181;28;20665;-58
2023/08/04 09:26:14;;;;;;;8.85;6.18;;;;;;;32.23;nan;63384.00;5013062;28;20175;-58
2023/08/04 09:28:40;;;;;;;10.90;6.93;;;;;;;32.45;nan;63475.56;5012648;28;20215;-59
2023/08/04 09:31:12;;;;;;;12.52;7.32;;;;;;;32.83;nan;63442.09;5012888;28;20191;-57
2023/08/04 09:33:41;;;;;;;8.57;6.45;;;;;;;33.19;nan;63571.16;5012721;28;20229;-58
2023/08/04 09:36:15;;;;;;;9.48;6.25;;;;;;;32.94;nan;63497.19;5012692;28;20298;-56
2023/08/04 09:38:40;;;;;;;10.02;7.05;;;;;;;33.00;nan;63540.63;5012801;28;20167;-58
2023/08/04 09:41:08;;;;;;;9.25;6.68;;;;;;;33.08;nan;63454.47;5012409;28;20295;-58
2023/08/04 09:43:34;;;;;;;10.80;6.65;;;;;;;33.16;nan;63492.88;5011855;28;20171;-58
2023/08/04 09:46:06;;;;;;;8.68;6.43;;;;;;;33.28;nan;63552.41;5012699;28;20646;-58
2023/08/04 09:48:32;;;;;;;9.15;6.78;;;;;;;33.48;nan;63608.84;5012810;28;20167;-57
2023/08/04 09:51:10;;;;;;;11.30;7.68;;;;;;;33.38;nan;63589.91;5012631;28;20206;-58
2023/08/04 09:53:49;;;;;;;10.20;7.20;;;;;;;33.79;nan;63686.59;5012229;28;20159;-58
2023/08/04 09:56:17;;;;;;;11.50;7.07;;;;;;;33.72;nan;63620.69;5012950;28;20167;-57
2023/08/04 09:58:44;;;;;;;11.15;6.40;;;;;;;33.91;nan;63631.50;5012731;28;20164;-58
2023/08/04 10:01:10;;;;;;;21.05;9.60;;;;;;;34.13;nan;63699.41;5012780;28;20669;-57
2023/08/04 10:03:50;;;;;;;9.77;7.28;;;;;;;33.75;nan;63605.03;5012257;28;20611;-58
2023/08/04 10:06:17;;;;;;;10.15;6.82;;;;;;;33.63;nan;63576.38;5012017;28;20172;-57
2023/08/04 10:08:43;;;;;;;11.85;7.75;;;;;;;33.94;nan;63664.72;5012283;28;20226;-59
2023/08/04 10:11:09;;;;;;;12.60;7.15;;;;;;;34.29;nan;63749.25;5011614;28;20199;-62
2023/08/04 10:13:40;;;;;;;13.23;7.78;;;;;;;34.39;nan;63925.50;5012217;28;20163;-58
2023/08/04 10:16:08;;;;;;;10.27;7.28;;;;;;;34.62;nan;63853.91;5012197;28;20183;-58
2023/08/04 10:18:53;;;;;;;9.30;6.95;;;;;;;34.44;nan;63777.84;5012074;28;20270;-56
2023/08/04 10:21:41;;;;;;;11.40;7.15;;;;;;;34.28;nan;63843.66;5012627;28;20171;-79
2023/08/04 10:24:11;;;;;;;9.20;6.38;;;;;;;34.31;nan;63714.41;5012586;28;20168;-77
2023/08/04 10:26:45;;;;;;;8.73;6.35;;;;;;;34.63;nan;63790.72;5012296;28;20164;-78
2023/08/04 10:29:11;;;;;;;8.75;6.13;;;;;;;34.51;nan;63827.84;5012380;28;20266;-79
2023/08/04 10:31:55;;;;;;;10.98;6.30;;;;;;;34.77;nan;63769.78;5010822;28;20641;-80
2023/08/04 10:34:28;;;;;;;8.70;6.75;;;;;;;35.17;nan;63943.19;5012494;28;20547;-77
2023/08/04 10:37:09;;;;;;;9.30;6.93;;;;;;;35.47;nan;63988.09;5012575;28;20622;-78
2023/08/04 10:39:39;;;;;;;10.07;7.20;;;;;;;35.61;nan;64060.25;5012179;28;20160;-80
2023/08/04 10:42:14;;;;;;;9.52;6.80;;;;;;;36.11;nan;64158.34;5010868;28;20180;-77
2023/08/04 10:45:02;;;;;;;11.50;6.93;;;;;;;36.28;nan;64126.97;5012355;28;20167;-78
2023/08/04 10:47:31;;;;;;;9.65;6.90;;;;;;;36.08;nan;64109.00;5012471;28;20231;-80
2023/08/04 10:49:57;;;;;;;7.45;5.88;;;;;;;36.14;nan;64100.59;5011054;28;20183;-78
2023/08/04 10:52:24;;;;;;;11.77;6.95;;;;;;;35.97;nan;64125.50;5011916;28;20250;-79
2023/08/04 10:54:51;;;;;;;8.52;6.57;;;;;;;36.08;nan;64087.69;5011727;28;20187;-79
2023/08/04 10:57:21;;;;;;;9.10;6.68;;;;;;;36.04;nan;64130.97;5011609;28;20607;-79
2023/08/04 10:59:48;;;;;;;9.50;6.70;;;;;;;36.07;nan;64121.16;5010808;28;20661;-76
2023/08/04 11:02:19;;;;;;;8.52;6.55;;;;;;;36.11;nan;64109.84;5012130;28;20175;-79
2023/08/04 11:04:45;;;;;;;7.32;5.38;;;;;;;36.05;nan;64100.78;5012372;28;20167;-79
2023/08/04 11:07:12;;;;;;;8.20;5.93;;;;;;;36.17;nan;64092.84;5012392;28;20246;-78
2023/08/04 11:09:38;;;;;;;9.93;7.03;;;;;;;35.87;nan;64021.28;5010862;28;20542;-78
2023/08/04 11:12:06;;;;;;;9.23;6.45;;;;;;;36.14;nan;64020.72;5011726;28;20202;-77
2023/08/04 11:14:31;;;;;;;8.52;6.50;;;;;;;36.38;nan;64218.53;5011723;28;20639;-77
2023/08/04 11:17:00;;;;;;;7.30;5.82;;;;;;;36.68;nan;64242.81;5011564;28;20213;-77
2023/08/04 11:19:28;;;;;;;9.02;6.10;;;;;;;36.77;nan;64220.13;5010271;28;20175;-78
2023/08/04 11:21:53;;;;;;;7.82;5.65;;;;;;;36.74;nan;64302.53;5010325;28;20256;-78
2023/08/04 11:24:25;;;;;;;7.32;5.50;;;;;;;36.66;nan;64269.22;5010319;28;20668;-77
2023/08/04 11:26:53;;;;;;;7.95;6.18;;;;;;;36.71;nan;64176.44;4993680;28;20179;-79
2023/08/04 11:29:19;;;;;;;7.63;5.22;;;;;;;36.74;nan;64111.19;5011190;28;20203;-80
2023/08/04 11:31:46;;;;;;;12.10;6.15;;;;;;;36.78;nan;64287.97;5011775;28;20616;-79
2023/08/04 11:34:14;;;;;;;6.80;5.15;;;;;;;36.77;nan;64236.13;5011456;28;20176;-77
2023/08/04 11:36:41;;;;;;;7.95;5.15;;;;;;;36.78;nan;64221.91;5010466;28;20183;-78
2023/08/04 11:39:06;;;;;;;8.00;5.60;;;;;;;36.97;nan;64305.34;5011802;28;20642;-78
2023/08/04 11:41:32;;;;;;;7.20;5.57;;;;;;;36.97;nan;64326.69;5011523;28;20250;-76
2023/08/04 11:43:59;;;;;;;7.97;5.75;;;;;;;36.80;nan;64175.66;5011468;28;20194;-79
2023/08/04 11:46:26;;;;;;;8.93;5.68;;;;;;;36.98;nan;64290.53;5020458;28;20190;-78